createdAt,value
2022-12-29T00:00:07.385Z,1.80
2022-12-29T00:02:39.335Z,1.90
2022-12-29T00:05:07.190Z,2.50
2022-12-29T00:07:33.429Z,1.73
2022-12-29T00:09:59.559Z,1.63
2022-12-29T00:12:45.675Z,2.00
2022-12-29T00:15:32.110Z,2.10
2022-12-29T00:17:58.300Z,1.80
2022-12-29T00:20:43.094Z,2.20
2022-12-29T00:23:28.053Z,1.90
2022-12-29T00:26:20.068Z,1.83
2022-12-29T00:29:06.629Z,2.13
2022-12-29T00:31:51.791Z,2.80
2022-12-29T00:34:36.248Z,1.60
2022-12-29T00:37:02.545Z,1.70
2022-12-29T00:39:47.133Z,1.83
2022-12-29T00:42:31.634Z,1.80
2022-12-29T00:44:57.746Z,1.70
2022-12-29T00:47:23.857Z,1.90
2022-12-29T00:49:50.009Z,2.30
2022-12-29T00:52:16.896Z,1.80
2022-12-29T00:54:45.134Z,2.00
2022-12-29T00:57:12.637Z,1.70
2022-12-29T00:59:42.909Z,1.77
2022-12-29T01:02:10.412Z,1.73
2022-12-29T01:04:36.875Z,1.60
2022-12-29T01:07:03.580Z,1.50
2022-12-29T01:09:47.994Z,1.73
2022-12-29T01:12:14.377Z,1.80
2022-12-29T01:14:41.364Z,1.60
2022-12-29T01:17:07.633Z,1.70
2022-12-29T01:19:34.043Z,1.50
2022-12-29T01:22:00.534Z,1.67
2022-12-29T01:24:27.811Z,1.50
2022-12-29T01:26:54.681Z,2.13
2022-12-29T01:29:21.509Z,1.80
2022-12-29T01:31:49.743Z,2.20
2022-12-29T01:34:16.182Z,1.50
2022-12-29T01:36:42.365Z,1.77
2022-12-29T01:39:08.541Z,2.60
2022-12-29T01:41:34.713Z,1.50
2022-12-29T01:44:01.901Z,1.90
2022-12-29T01:46:38.398Z,1.60
2022-12-29T01:49:26.792Z,1.73
2022-12-29T01:52:05.470Z,1.80
2022-12-29T01:54:39.066Z,1.60
2022-12-29T01:57:22.613Z,1.60
2022-12-29T02:00:03.492Z,2.10
2022-12-29T02:02:42.583Z,1.67
2022-12-29T02:05:30.945Z,1.60
2022-12-29T02:07:57.508Z,1.70
2022-12-29T02:10:28.309Z,1.63
2022-12-29T02:12:56.369Z,1.73
2022-12-29T02:16:07.654Z,1.53
2022-12-29T02:19:26.558Z,1.40
2022-12-29T02:22:11.591Z,2.30
2022-12-29T02:25:10.879Z,1.50
2022-12-29T02:27:53.245Z,1.50
2022-12-29T02:31:06.214Z,1.50
2022-12-29T02:34:12.799Z,1.23
2022-12-29T02:37:09.398Z,2.17
2022-12-29T02:39:53.156Z,1.20
2022-12-29T02:42:40.372Z,1.13
2022-12-29T02:45:19.123Z,1.20
2022-12-29T02:48:18.607Z,2.40
2022-12-29T02:50:57.929Z,1.00
2022-12-29T02:54:01.393Z,1.57
2022-12-29T02:56:27.788Z,1.50
2022-12-29T02:58:54.210Z,1.30
2022-12-29T03:01:32.261Z,2.30
2022-12-29T03:04:37.211Z,1.30
2022-12-29T03:07:21.261Z,1.30
2022-12-29T03:10:12.513Z,1.10
2022-12-29T03:13:30.452Z,2.00
2022-12-29T03:16:13.109Z,1.10
2022-12-29T03:19:07.286Z,2.00
2022-12-29T03:22:05.166Z,1.30
2022-12-29T03:24:46.887Z,1.50
2022-12-29T03:27:20.190Z,1.30
2022-12-29T03:29:55.531Z,1.37
2022-12-29T03:32:28.457Z,1.40
2022-12-29T03:34:58.954Z,1.73
2022-12-29T03:37:37.056Z,1.70
2022-12-29T03:40:05.796Z,2.03
2022-12-29T03:42:36.745Z,1.30
2022-12-29T03:45:06.604Z,2.43
2022-12-29T03:47:32.834Z,1.50
2022-12-29T03:49:59.063Z,1.67
2022-12-29T03:52:25.306Z,1.60
2022-12-29T03:54:52.935Z,1.70
2022-12-29T03:57:19.129Z,1.40
2022-12-29T03:59:58.021Z,1.50
2022-12-29T04:02:24.409Z,1.33
2022-12-29T04:04:50.665Z,1.50
2022-12-29T04:07:17.345Z,1.50
2022-12-29T04:09:44.485Z,1.70
2022-12-29T04:12:16.246Z,2.43
2022-12-29T04:14:43.276Z,1.77
2022-12-29T04:17:09.415Z,3.83
2022-12-29T04:19:35.617Z,1.70
2022-12-29T04:22:01.786Z,3.13
2022-12-29T04:24:28.643Z,1.10
2022-12-29T04:26:54.947Z,1.60
2022-12-29T04:29:47.634Z,2.10
2022-12-29T04:32:34.301Z,2.70
2022-12-29T04:35:00.612Z,1.70
2022-12-29T04:37:27.550Z,1.97
2022-12-29T04:39:54.461Z,1.80
2022-12-29T04:42:21.009Z,1.40
2022-12-29T04:44:47.261Z,2.13
2022-12-29T04:47:33.394Z,1.33
2022-12-29T04:50:26.890Z,1.40
2022-12-29T04:53:01.527Z,1.57
2022-12-29T04:55:27.779Z,1.40
2022-12-29T04:57:55.245Z,1.20
2022-12-29T05:00:21.865Z,3.60
2022-12-29T05:02:48.221Z,1.40
2022-12-29T05:05:15.034Z,2.97
2022-12-29T05:07:43.975Z,1.43
2022-12-29T05:10:11.081Z,1.30
2022-12-29T05:12:38.814Z,1.73
2022-12-29T05:15:07.574Z,1.50
2022-12-29T05:17:34.218Z,1.50
2022-12-29T05:20:00.412Z,1.50
2022-12-29T05:22:26.659Z,1.73
2022-12-29T05:24:54.620Z,1.40
2022-12-29T05:27:20.784Z,1.50
2022-12-29T05:30:09.789Z,1.50
2022-12-29T05:32:35.946Z,2.70
2022-12-29T05:35:02.094Z,2.20
2022-12-29T05:37:29.141Z,1.40
2022-12-29T05:39:55.540Z,1.60
2022-12-29T05:42:21.951Z,1.30
2022-12-29T05:44:53.980Z,1.20
2022-12-29T05:47:43.425Z,1.43
2022-12-29T05:50:26.838Z,1.53
2022-12-29T05:53:08.401Z,1.40
2022-12-29T05:55:35.912Z,1.47
2022-12-29T05:58:02.223Z,1.70
2022-12-29T06:00:28.401Z,1.30
2022-12-29T06:02:54.789Z,1.60
2022-12-29T06:05:21.315Z,1.40
2022-12-29T06:07:47.450Z,1.40
2022-12-29T06:10:16.349Z,1.33
2022-12-29T06:13:04.000Z,1.40
2022-12-29T06:15:32.836Z,1.50
2022-12-29T06:17:59.054Z,1.50
2022-12-29T06:20:25.347Z,2.47
2022-12-29T06:22:52.445Z,1.50
2022-12-29T06:25:18.744Z,1.50
2022-12-29T06:27:45.002Z,1.23
2022-12-29T06:30:12.431Z,1.97
2022-12-29T06:32:39.901Z,1.83
2022-12-29T06:35:09.490Z,1.50
2022-12-29T06:37:40.356Z,1.50
2022-12-29T06:40:07.334Z,1.40
2022-12-29T06:42:50.172Z,1.40
2022-12-29T06:45:32.812Z,1.40
2022-12-29T06:47:58.975Z,1.27
2022-12-29T06:50:25.167Z,1.47
2022-12-29T06:52:51.293Z,1.30
2022-12-29T06:55:17.448Z,1.20
2022-12-29T06:57:43.593Z,1.47
2022-12-29T07:00:10.501Z,1.23
2022-12-29T07:02:36.692Z,1.50
2022-12-29T07:05:03.031Z,1.20
2022-12-29T07:07:29.424Z,1.70
2022-12-29T07:09:55.745Z,1.10
2022-12-29T07:12:21.890Z,1.10
2022-12-29T07:14:48.035Z,1.30
2022-12-29T07:17:14.166Z,1.07
2022-12-29T07:19:40.294Z,1.37
2022-12-29T07:22:06.429Z,1.40
2022-12-29T07:24:32.594Z,1.73
2022-12-29T07:26:58.714Z,1.27
2022-12-29T07:29:24.878Z,1.67
2022-12-29T07:31:51.334Z,1.50
2022-12-29T07:34:17.804Z,1.10
2022-12-29T07:36:43.947Z,2.50
2022-12-29T07:39:10.098Z,1.10
2022-12-29T07:41:36.304Z,1.30
2022-12-29T07:44:02.738Z,1.27
2022-12-29T07:46:55.736Z,1.30
2022-12-29T07:49:23.294Z,1.00
2022-12-29T07:51:49.483Z,1.00
2022-12-29T07:54:18.344Z,1.73
2022-12-29T07:56:45.458Z,1.63
2022-12-29T07:59:12.284Z,1.30
2022-12-29T08:01:39.431Z,1.50
2022-12-29T08:04:05.858Z,1.13
2022-12-29T08:06:32.113Z,1.03
2022-12-29T08:09:01.529Z,1.57
2022-12-29T08:11:30.359Z,1.07
2022-12-29T08:13:56.476Z,1.20
2022-12-29T08:16:22.966Z,3.60
2022-12-29T08:18:49.353Z,4.03
2022-12-29T08:21:15.601Z,2.03
2022-12-29T08:23:41.760Z,2.27
2022-12-29T08:26:07.917Z,1.40
2022-12-29T08:28:34.103Z,1.20
2022-12-29T08:31:03.246Z,1.30
2022-12-29T08:33:30.345Z,1.53
2022-12-29T08:36:05.640Z,1.50
2022-12-29T08:38:32.503Z,1.30
2022-12-29T08:41:01.120Z,1.87
2022-12-29T08:43:28.363Z,1.40
2022-12-29T08:45:54.540Z,1.40
2022-12-29T08:48:22.333Z,1.30
2022-12-29T08:50:50.323Z,1.10
2022-12-29T08:53:18.060Z,4.80
2022-12-29T08:55:57.926Z,2.33
2022-12-29T08:58:28.455Z,1.30
2022-12-29T09:00:56.635Z,2.47
2022-12-29T09:03:45.953Z,1.37
2022-12-29T09:06:11.222Z,1.43
2022-12-29T09:08:37.447Z,2.00
2022-12-29T09:11:18.047Z,2.17
2022-12-29T09:13:44.320Z,4.07
2022-12-29T09:16:11.141Z,1.40
2022-12-29T09:18:37.870Z,1.60
2022-12-29T09:21:07.126Z,1.83
2022-12-29T09:23:34.806Z,2.70
2022-12-29T09:26:01.087Z,1.83
2022-12-29T09:28:29.205Z,2.57
2022-12-29T09:30:57.162Z,2.07
2022-12-29T09:33:24.418Z,1.33
2022-12-29T09:35:57.822Z,5.33
2022-12-29T09:38:26.002Z,5.03
2022-12-29T09:40:56.414Z,4.60
2022-12-29T09:43:57.513Z,2.50
2022-12-29T09:46:31.772Z,2.67
2022-12-29T09:49:16.700Z,1.73
2022-12-29T09:51:49.871Z,1.60
2022-12-29T09:54:38.890Z,2.77
2022-12-29T09:57:15.160Z,1.70
2022-12-29T09:59:45.384Z,2.53
2022-12-29T10:02:23.050Z,3.73
2022-12-29T10:04:49.330Z,1.93
2022-12-29T10:07:44.458Z,1.50
2022-12-29T10:10:20.645Z,4.27
2022-12-29T10:13:17.066Z,2.60
2022-12-29T10:16:20.199Z,2.60
2022-12-29T10:19:01.341Z,1.27
2022-12-29T10:22:49.616Z,2.37
2022-12-29T10:25:28.330Z,2.77
2022-12-29T10:28:00.835Z,1.67
2022-12-29T10:30:27.404Z,3.33
2022-12-29T10:33:04.344Z,1.30
2022-12-29T10:35:39.264Z,5.30
2022-12-29T10:38:27.562Z,1.50
2022-12-29T10:41:20.237Z,1.60
2022-12-29T10:43:54.374Z,3.43
2022-12-29T10:46:31.073Z,3.20
2022-12-29T10:48:57.330Z,8.30
2022-12-29T10:51:30.559Z,1.73
2022-12-29T10:54:18.182Z,3.57
2022-12-29T10:56:53.229Z,3.67
2022-12-29T10:59:30.617Z,2.60
2022-12-29T11:02:11.772Z,3.23
2022-12-29T11:04:55.406Z,1.93
2022-12-29T11:07:26.887Z,5.37
2022-12-29T11:09:54.044Z,2.07
2022-12-29T11:12:21.719Z,3.43
2022-12-29T11:14:59.990Z,3.43
2022-12-29T11:17:26.358Z,2.40
2022-12-29T11:19:52.505Z,3.73
2022-12-29T11:22:29.892Z,1.93
2022-12-29T11:25:12.492Z,2.87
2022-12-29T11:27:38.929Z,3.10
2022-12-29T11:30:27.340Z,1.33
2022-12-29T11:32:55.212Z,1.80
2022-12-29T11:35:41.087Z,2.53
2022-12-29T11:38:23.664Z,2.33
2022-12-29T11:40:50.377Z,1.97
2022-12-29T11:43:35.807Z,3.20
2022-12-29T11:46:05.177Z,2.93
2022-12-29T11:48:41.491Z,3.27
2022-12-29T11:51:10.784Z,3.43
2022-12-29T11:53:47.942Z,4.27
2022-12-29T11:56:22.931Z,1.63
2022-12-29T11:58:50.970Z,2.63
2022-12-29T12:01:37.541Z,2.63
2022-12-29T12:04:21.494Z,2.23
2022-12-29T12:07:21.265Z,1.60
2022-12-29T12:09:55.259Z,3.83
2022-12-29T12:12:53.355Z,1.80
2022-12-29T12:15:56.376Z,3.63
2022-12-29T12:18:52.051Z,2.90
2022-12-29T12:21:30.184Z,5.23
2022-12-29T12:24:47.775Z,3.87
2022-12-29T12:27:40.218Z,3.83
2022-12-29T12:30:20.132Z,2.87
2022-12-29T12:32:59.097Z,2.73
2022-12-29T12:36:22.258Z,3.90
2022-12-29T12:39:15.158Z,3.93
2022-12-29T12:42:05.738Z,3.37
2022-12-29T12:45:07.062Z,5.67
2022-12-29T12:48:04.005Z,4.43
2022-12-29T12:51:16.276Z,5.43
2022-12-29T12:53:53.376Z,3.30
2022-12-29T12:56:47.594Z,3.00
2022-12-29T13:00:06.673Z,4.00
2022-12-29T13:03:17.545Z,2.17
2022-12-29T13:06:24.927Z,3.93
2022-12-29T13:09:18.346Z,4.93
2022-12-29T13:12:17.552Z,2.23
2022-12-29T13:15:25.768Z,4.40
2022-12-29T13:18:14.573Z,3.23
2022-12-29T13:21:02.554Z,2.67
2022-12-29T13:23:59.023Z,7.70
2022-12-29T13:26:54.050Z,5.37
2022-12-29T13:29:32.948Z,4.40
2022-12-29T13:32:38.702Z,2.53
2022-12-29T13:35:43.152Z,2.30
2022-12-29T13:38:44.864Z,4.60
2022-12-29T13:41:29.599Z,5.40
2022-12-29T13:43:58.315Z,3.43
2022-12-29T13:46:36.691Z,3.33
2022-12-29T13:49:12.758Z,4.50
2022-12-29T13:51:50.714Z,3.93
2022-12-29T13:54:22.721Z,4.63
2022-12-29T13:57:00.229Z,2.63
2022-12-29T13:59:50.989Z,5.13
2022-12-29T14:02:32.171Z,3.10
2022-12-29T14:05:04.369Z,5.07
2022-12-29T14:07:38.731Z,3.67
2022-12-29T14:10:05.817Z,2.60
2022-12-29T14:12:43.604Z,3.70
2022-12-29T14:15:09.684Z,2.63
2022-12-29T14:17:43.945Z,4.37
2022-12-29T14:20:23.380Z,4.87
2022-12-29T14:23:16.594Z,6.10
2022-12-29T14:26:32.082Z,5.43
2022-12-29T14:29:25.675Z,4.10
2022-12-29T14:31:53.138Z,2.17
2022-12-29T14:34:22.390Z,3.50
2022-12-29T14:37:02.928Z,2.40
2022-12-29T14:39:38.625Z,3.23
2022-12-29T14:42:10.881Z,5.37
2022-12-29T14:44:56.293Z,4.80
2022-12-29T14:47:34.175Z,2.33
2022-12-29T14:50:15.594Z,5.40
2022-12-29T14:52:46.865Z,3.97
2022-12-29T14:55:15.894Z,4.10
2022-12-29T14:57:52.781Z,2.63
2022-12-29T15:00:36.910Z,3.77
2022-12-29T15:03:25.143Z,4.77
2022-12-29T15:05:55.593Z,5.17
2022-12-29T15:08:30.520Z,5.80
2022-12-29T15:11:17.101Z,2.00
2022-12-29T15:13:45.713Z,2.17
2022-12-29T15:16:29.027Z,7.03
2022-12-29T15:18:55.689Z,4.00
2022-12-29T15:21:32.034Z,3.07
2022-12-29T15:23:58.975Z,5.20
2022-12-29T15:26:39.652Z,7.80
2022-12-29T15:29:25.866Z,5.87
2022-12-29T15:31:52.231Z,12.43
2022-12-29T15:34:21.933Z,3.80
2022-12-29T15:36:51.144Z,7.07
2022-12-29T15:39:31.997Z,4.07
2022-12-29T15:42:37.380Z,4.50
2022-12-29T15:45:11.859Z,3.60
2022-12-29T15:47:40.819Z,3.47
2022-12-29T15:50:27.535Z,4.53
2022-12-29T15:52:54.776Z,3.93
2022-12-29T15:55:37.535Z,6.77
2022-12-29T15:58:18.310Z,7.90
2022-12-29T16:00:50.472Z,3.93
2022-12-29T16:03:17.380Z,5.23
2022-12-29T16:05:55.734Z,3.70
2022-12-29T16:08:33.382Z,3.23
2022-12-29T16:11:03.185Z,2.27
2022-12-29T16:13:40.517Z,2.23
2022-12-29T16:16:25.926Z,2.80
2022-12-29T16:18:57.677Z,3.00
2022-12-29T16:21:31.966Z,3.63
2022-12-29T16:24:07.057Z,2.77
2022-12-29T16:26:33.355Z,6.70
2022-12-29T16:29:07.842Z,7.20
2022-12-29T16:32:02.167Z,3.07
2022-12-29T16:34:40.311Z,4.13
2022-12-29T16:37:28.716Z,4.37
2022-12-29T16:39:55.376Z,3.67
2022-12-29T16:42:51.743Z,3.37
2022-12-29T16:45:24.032Z,4.53
2022-12-29T16:48:19.413Z,3.67
2022-12-29T16:50:46.165Z,3.87
2022-12-29T16:53:28.330Z,7.33
2022-12-29T16:55:57.524Z,3.43
2022-12-29T16:58:29.308Z,5.20
2022-12-29T17:00:59.109Z,4.03
2022-12-29T17:03:40.069Z,4.17
2022-12-29T17:06:13.767Z,2.43
2022-12-29T17:08:42.756Z,3.67
2022-12-29T17:11:55.623Z,6.60
2022-12-29T17:14:52.948Z,6.77
2022-12-29T17:17:38.761Z,5.37
2022-12-29T17:20:14.072Z,5.10
2022-12-29T17:22:40.243Z,3.47
2022-12-29T17:25:07.061Z,4.87
2022-12-29T17:27:43.206Z,9.03
2022-12-29T17:30:19.232Z,6.43
2022-12-29T17:32:53.586Z,5.43
2022-12-29T17:35:22.135Z,3.93
2022-12-29T17:37:49.988Z,5.53
2022-12-29T17:40:28.923Z,5.27
2022-12-29T17:42:58.124Z,4.43
2022-12-29T17:45:28.732Z,11.10
2022-12-29T17:47:55.699Z,6.33
2022-12-29T17:50:24.811Z,8.23
2022-12-29T17:53:06.238Z,7.93
2022-12-29T17:55:38.162Z,3.40
2022-12-29T17:58:27.023Z,5.77
2022-12-29T18:00:57.735Z,6.03
2022-12-29T18:03:34.786Z,2.83
2022-12-29T18:06:02.125Z,5.50
2022-12-29T18:08:28.686Z,5.20
2022-12-29T18:10:55.534Z,4.77
2022-12-29T18:13:27.236Z,8.17
2022-12-29T18:15:57.216Z,6.27
2022-12-29T18:18:27.167Z,6.00
2022-12-29T18:20:58.726Z,9.33
2022-12-29T18:23:28.859Z,4.20
2022-12-29T18:26:05.686Z,9.53
2022-12-29T18:28:31.969Z,6.67
2022-12-29T18:31:00.786Z,6.30
2022-12-29T18:33:28.510Z,5.37
2022-12-29T18:36:04.002Z,7.83
2022-12-29T18:38:30.463Z,7.17
2022-12-29T18:40:58.046Z,4.27
2022-12-29T18:43:24.538Z,4.93
2022-12-29T18:45:51.028Z,6.20
2022-12-29T18:48:19.102Z,7.40
2022-12-29T18:50:49.064Z,6.10
2022-12-29T18:53:21.402Z,5.90
2022-12-29T18:55:47.634Z,11.37
2022-12-29T18:58:14.399Z,7.97
2022-12-29T19:00:41.551Z,5.43
2022-12-29T19:03:12.029Z,6.60
2022-12-29T19:05:41.751Z,5.47
2022-12-29T19:08:09.658Z,7.40
2022-12-29T19:10:37.939Z,9.80
2022-12-29T19:13:05.264Z,5.80
2022-12-29T19:15:34.913Z,5.37
2022-12-29T19:20:53.530Z,9.50
2022-12-29T19:23:24.317Z,4.30
2022-12-29T19:25:52.696Z,5.87
2022-12-29T19:28:28.631Z,14.30
2022-12-29T19:31:00.007Z,6.27
2022-12-29T19:33:27.360Z,7.27
2022-12-29T19:36:00.415Z,5.30
2022-12-29T19:38:26.527Z,8.70
2022-12-29T19:40:52.645Z,6.20
2022-12-29T19:43:19.121Z,9.97
2022-12-29T19:45:45.349Z,9.47
2022-12-29T19:48:18.887Z,4.53
2022-12-29T19:50:45.529Z,11.40
2022-12-29T19:53:12.795Z,8.53
2022-12-29T19:55:47.758Z,7.27
2022-12-29T19:58:14.337Z,6.70
2022-12-29T20:00:43.798Z,10.60
2022-12-29T20:03:10.785Z,8.77
2022-12-29T20:05:38.332Z,7.50
2022-12-29T20:08:04.967Z,5.67
2022-12-29T20:10:31.119Z,7.60
2022-12-29T20:12:57.264Z,7.47
2022-12-29T20:15:23.418Z,6.87
2022-12-29T20:20:35.864Z,8.30
2022-12-29T20:23:01.993Z,8.37
2022-12-29T20:25:46.383Z,10.90
2022-12-29T20:28:15.041Z,6.10
2022-12-29T20:30:41.210Z,6.77
2022-12-29T20:33:08.514Z,8.90
2022-12-29T20:35:36.110Z,6.00
2022-12-29T20:38:03.282Z,6.07
2022-12-29T20:40:29.413Z,6.87
2022-12-29T20:42:55.544Z,11.67
2022-12-29T20:45:21.675Z,9.23
2022-12-29T20:47:47.790Z,5.47
2022-12-29T20:50:14.840Z,6.10
2022-12-29T20:52:40.991Z,6.37
2022-12-29T20:55:07.358Z,8.23
2022-12-29T20:57:57.043Z,9.97
2022-12-29T21:00:22.605Z,7.77
2022-12-29T21:02:49.836Z,6.73
2022-12-29T21:05:24.864Z,9.00
2022-12-29T21:07:53.118Z,9.40
2022-12-29T21:10:19.912Z,4.80
2022-12-29T21:12:46.904Z,5.23
2022-12-29T21:15:14.674Z,5.97
2022-12-29T21:17:44.510Z,6.63
2022-12-29T21:20:21.386Z,9.23
2022-12-29T21:22:48.340Z,6.30
2022-12-29T21:25:14.749Z,9.80
2022-12-29T21:27:43.461Z,12.63
2022-12-29T21:30:10.501Z,8.97
2022-12-29T21:32:36.766Z,3.20
2022-12-29T21:35:03.234Z,6.37
2022-12-29T21:37:29.362Z,9.07
2022-12-29T21:39:56.107Z,4.70
2022-12-29T21:42:22.535Z,5.10
2022-12-29T21:45:06.963Z,9.43
2022-12-29T21:47:52.741Z,6.57
2022-12-29T21:50:18.856Z,7.13
2022-12-29T21:52:44.976Z,10.20
2022-12-29T21:55:11.113Z,7.33
2022-12-29T21:57:55.479Z,7.17
2022-12-29T22:00:40.265Z,6.07
2022-12-29T22:03:25.537Z,4.67
2022-12-29T22:06:12.141Z,6.27
2022-12-29T22:08:57.908Z,6.77
2022-12-29T22:11:43.270Z,7.23
2022-12-29T22:14:09.408Z,7.37
2022-12-29T22:16:35.588Z,8.10
2022-12-29T22:19:02.070Z,11.57
2022-12-29T22:21:28.301Z,8.00
2022-12-29T22:23:54.524Z,4.60
2022-12-29T22:26:20.843Z,6.97
2022-12-29T22:28:47.489Z,5.43
2022-12-29T22:31:29.648Z,6.10
2022-12-29T22:33:58.083Z,9.73
2022-12-29T22:36:25.966Z,9.20
2022-12-29T22:38:52.234Z,7.37
2022-12-29T22:41:18.716Z,11.87
2022-12-29T22:43:45.285Z,7.27
2022-12-29T22:46:11.653Z,8.63
2022-12-29T22:48:38.129Z,7.87
2022-12-29T22:51:04.834Z,4.47
2022-12-29T22:53:31.270Z,10.77
2022-12-29T22:56:07.402Z,7.00
2022-12-29T22:58:34.502Z,11.67
2022-12-29T23:01:01.842Z,6.70
2022-12-29T23:03:28.596Z,7.53
2022-12-29T23:06:00.119Z,3.27
2022-12-29T23:08:29.962Z,8.53
2022-12-29T23:10:56.097Z,10.53
2022-12-29T23:13:22.221Z,10.10
2022-12-29T23:15:48.708Z,6.33
2022-12-29T23:18:16.118Z,4.03
2022-12-29T23:20:43.801Z,8.37
2022-12-29T23:23:10.496Z,6.57
2022-12-29T23:25:38.037Z,6.20
2022-12-29T23:28:07.539Z,8.60
2022-12-29T23:30:34.691Z,6.33
2022-12-29T23:33:00.854Z,7.73
2022-12-29T23:35:26.993Z,11.40
2022-12-29T23:37:53.133Z,5.43
2022-12-29T23:40:19.249Z,5.57
2022-12-29T23:42:45.463Z,4.90
2022-12-29T23:45:12.762Z,6.90
2022-12-29T23:47:38.909Z,5.97
2022-12-29T23:50:05.837Z,6.43
2022-12-29T23:52:31.999Z,5.47
2022-12-29T23:54:58.129Z,10.30
2022-12-29T23:57:24.266Z,6.43
2022-12-29T23:59:50.385Z,5.87
